createdAt,value
2018-03-31T00:00:06.301Z,89.97
2018-03-31T00:02:33.174Z,90.10
2018-03-31T00:05:00.057Z,90.23
2018-03-31T00:07:26.922Z,90.35
2018-03-31T00:09:53.808Z,90.28
2018-03-31T00:12:20.680Z,90.21
2018-03-31T00:14:47.557Z,90.14
2018-03-31T00:17:14.425Z,89.98
2018-03-31T00:19:41.308Z,89.94
2018-03-31T00:22:08.177Z,89.95
2018-03-31T00:24:35.059Z,90.05
2018-03-31T00:27:01.940Z,89.84
2018-03-31T00:29:28.819Z,89.75
2018-03-31T00:31:55.688Z,89.75
2018-03-31T00:34:22.579Z,89.99
2018-03-31T00:36:49.446Z,90.04
2018-03-31T00:39:16.333Z,90.04
2018-03-31T00:41:43.198Z,89.68
2018-03-31T00:44:10.074Z,89.44
2018-03-31T00:46:36.936Z,89.25
2018-03-31T00:49:03.816Z,88.86
2018-03-31T00:51:30.681Z,88.64
2018-03-31T00:53:57.558Z,88.46
2018-03-31T00:56:24.432Z,88.18
2018-03-31T00:58:51.301Z,87.70
2018-03-31T01:01:18.169Z,87.48
2018-03-31T01:03:45.046Z,87.56
2018-03-31T01:06:11.918Z,88.01
2018-03-31T01:08:38.784Z,88.36
2018-03-31T01:11:05.761Z,88.28
2018-03-31T01:13:32.626Z,87.98
2018-03-31T01:15:59.502Z,88.00
2018-03-31T01:18:26.370Z,87.96
2018-03-31T01:20:53.251Z,87.96
2018-03-31T01:23:20.113Z,88.35
2018-03-31T01:25:47.002Z,88.49
2018-03-31T01:28:13.863Z,88.54
2018-03-31T01:30:40.737Z,88.71
2018-03-31T01:33:07.609Z,88.26
2018-03-31T01:35:34.491Z,88.03
2018-03-31T01:38:01.369Z,88.12
2018-03-31T01:40:28.227Z,88.40
2018-03-31T01:42:55.102Z,88.08
2018-03-31T01:45:21.969Z,87.92
2018-03-31T01:47:48.836Z,87.95
2018-03-31T01:50:15.712Z,88.12
2018-03-31T01:52:42.593Z,88.83
2018-03-31T01:55:09.454Z,89.18
2018-03-31T01:57:36.324Z,89.75
2018-03-31T02:00:03.210Z,90.38
2018-03-31T02:02:30.070Z,90.76
2018-03-31T02:04:56.949Z,90.87
2018-03-31T02:07:23.830Z,91.08
2018-03-31T02:09:50.706Z,91.26
2018-03-31T02:12:17.647Z,91.44
2018-03-31T02:14:44.514Z,91.52
2018-03-31T02:17:11.403Z,91.56
2018-03-31T02:19:38.281Z,91.48
2018-03-31T02:22:05.383Z,91.42
2018-03-31T02:24:32.365Z,90.97
2018-03-31T02:26:59.242Z,91.14
2018-03-31T02:29:26.119Z,91.54
2018-03-31T02:31:53.026Z,91.45
2018-03-31T02:34:19.889Z,91.41
2018-03-31T02:36:46.770Z,91.33
2018-03-31T02:39:13.638Z,91.17
2018-03-31T02:41:40.511Z,91.05
2018-03-31T02:44:07.376Z,90.84
2018-03-31T02:46:34.250Z,90.83
2018-03-31T02:49:01.130Z,90.96
2018-03-31T02:51:27.983Z,90.97
2018-03-31T02:53:54.842Z,91.02
2018-03-31T02:56:21.722Z,91.59
2018-03-31T02:58:48.603Z,92.07
2018-03-31T03:01:15.477Z,92.38
2018-03-31T03:03:42.342Z,92.17
2018-03-31T03:06:09.229Z,91.91
2018-03-31T03:08:36.087Z,91.56
2018-03-31T03:11:02.965Z,91.28
2018-03-31T03:13:29.840Z,91.40
2018-03-31T03:15:56.765Z,91.31
2018-03-31T03:18:23.648Z,91.40
2018-03-31T03:20:50.514Z,91.68
2018-03-31T03:23:17.392Z,91.72
2018-03-31T03:25:44.257Z,91.62
2018-03-31T03:28:11.134Z,91.62
2018-03-31T03:30:37.995Z,91.88
2018-03-31T03:33:04.990Z,91.90
2018-03-31T03:35:31.872Z,92.04
2018-03-31T03:37:58.742Z,92.28
2018-03-31T03:40:25.607Z,92.42
2018-03-31T03:42:52.488Z,92.53
2018-03-31T03:45:19.346Z,92.46
2018-03-31T03:47:46.832Z,92.36
2018-03-31T03:50:13.711Z,92.28
2018-03-31T03:52:40.582Z,92.25
2018-03-31T03:55:07.450Z,92.30
2018-03-31T03:57:34.322Z,92.35
2018-03-31T04:00:01.192Z,92.38
2018-03-31T04:02:28.079Z,92.69
2018-03-31T04:04:54.946Z,92.84
2018-03-31T04:07:21.828Z,93.13
2018-03-31T04:09:48.691Z,92.96
2018-03-31T04:12:15.574Z,92.98
2018-03-31T04:14:42.434Z,92.93
2018-03-31T04:17:09.340Z,92.90
2018-03-31T04:19:36.193Z,92.85
2018-03-31T04:22:03.046Z,92.60
2018-03-31T04:24:29.916Z,92.40
2018-03-31T04:26:56.771Z,92.22
2018-03-31T04:29:23.640Z,91.90
2018-03-31T04:31:50.505Z,91.66
2018-03-31T04:34:17.405Z,91.74
2018-03-31T04:36:44.269Z,91.50
2018-03-31T04:39:11.156Z,91.43
2018-03-31T04:41:38.010Z,91.42
2018-03-31T04:44:04.934Z,91.21
2018-03-31T04:46:31.753Z,91.08
2018-03-31T04:48:58.613Z,90.56
2018-03-31T04:51:25.479Z,90.78
2018-03-31T04:53:52.521Z,90.86
2018-03-31T04:56:19.388Z,90.82
2018-03-31T04:58:46.249Z,90.62
2018-03-31T05:01:13.125Z,90.61
2018-03-31T05:03:40.001Z,90.66
2018-03-31T05:06:06.870Z,90.65
2018-03-31T05:08:33.753Z,90.37
2018-03-31T05:11:00.630Z,90.84
2018-03-31T05:13:27.498Z,90.93
2018-03-31T05:15:54.357Z,90.87
2018-03-31T05:18:21.230Z,90.71
2018-03-31T05:20:48.090Z,90.58
2018-03-31T05:23:14.954Z,90.61
2018-03-31T05:25:41.832Z,90.30
2018-03-31T05:28:08.691Z,90.04
2018-03-31T05:30:35.558Z,89.93
2018-03-31T05:33:02.418Z,89.79
2018-03-31T05:35:29.291Z,89.93
2018-03-31T05:37:56.155Z,89.89
2018-03-31T05:40:23.043Z,89.73
2018-03-31T05:42:49.898Z,89.72
2018-03-31T05:45:16.778Z,89.58
2018-03-31T05:47:43.630Z,89.49
2018-03-31T05:50:10.502Z,89.12
2018-03-31T05:52:37.361Z,88.56
2018-03-31T05:55:04.306Z,88.62
2018-03-31T05:57:31.174Z,88.40
2018-03-31T05:59:58.062Z,88.14
2018-03-31T06:02:24.934Z,88.31
2018-03-31T06:04:51.812Z,88.43
2018-03-31T06:07:18.673Z,87.72
2018-03-31T06:09:45.542Z,87.61
2018-03-31T06:12:12.411Z,87.27
2018-03-31T06:14:39.291Z,86.78
2018-03-31T06:17:06.165Z,86.38
2018-03-31T06:19:33.048Z,86.20
2018-03-31T06:21:59.906Z,85.71
2018-03-31T06:24:26.789Z,85.23
2018-03-31T06:26:53.661Z,84.93
2018-03-31T06:29:20.534Z,84.73
2018-03-31T06:31:47.407Z,84.78
2018-03-31T06:34:14.269Z,84.79
2018-03-31T06:36:41.147Z,84.74
2018-03-31T06:39:08.009Z,84.66
2018-03-31T06:41:34.882Z,84.38
2018-03-31T06:44:01.752Z,84.07
2018-03-31T06:46:28.628Z,83.95
2018-03-31T06:48:55.486Z,84.16
2018-03-31T06:51:22.362Z,83.84
2018-03-31T06:53:49.223Z,83.67
2018-03-31T06:56:16.094Z,83.40
2018-03-31T06:58:42.958Z,82.89
2018-03-31T07:01:09.824Z,82.13
2018-03-31T07:03:36.690Z,82.10
2018-03-31T07:06:03.551Z,81.78
2018-03-31T07:08:30.421Z,81.73
2018-03-31T07:10:57.300Z,81.08
2018-03-31T07:13:24.173Z,80.33
2018-03-31T07:15:51.218Z,80.02
2018-03-31T07:18:18.093Z,80.29
2018-03-31T07:20:44.958Z,79.94
2018-03-31T07:23:11.818Z,80.16
2018-03-31T07:25:38.701Z,81.01
2018-03-31T07:28:05.557Z,80.83
2018-03-31T07:30:32.430Z,81.67
2018-03-31T07:32:59.299Z,81.80
2018-03-31T07:35:26.177Z,81.80
2018-03-31T07:37:53.058Z,80.70
2018-03-31T07:40:19.917Z,81.17
2018-03-31T07:42:46.820Z,80.76
2018-03-31T07:45:13.704Z,79.30
2018-03-31T07:47:40.591Z,79.22
2018-03-31T07:50:07.475Z,78.29
2018-03-31T07:52:35.168Z,78.64
2018-03-31T07:55:02.061Z,79.98
2018-03-31T07:57:28.949Z,79.51
2018-03-31T07:59:55.828Z,79.73
2018-03-31T08:02:22.724Z,79.39
2018-03-31T08:04:49.590Z,78.36
2018-03-31T08:07:16.505Z,78.00
2018-03-31T08:09:43.383Z,78.10
2018-03-31T08:12:10.285Z,77.92
2018-03-31T08:14:37.160Z,77.04
2018-03-31T08:17:04.079Z,77.69
2018-03-31T08:19:30.944Z,75.62
2018-03-31T08:21:57.810Z,75.84
2018-03-31T08:24:24.693Z,71.33
2018-03-31T08:26:51.570Z,70.03
2018-03-31T08:29:18.447Z,71.45
2018-03-31T08:31:45.322Z,70.78
2018-03-31T08:34:12.300Z,70.52
2018-03-31T08:36:39.791Z,67.96
2018-03-31T08:39:07.249Z,69.04
2018-03-31T08:41:35.048Z,68.10
2018-03-31T08:44:02.569Z,68.01
2018-03-31T08:46:30.053Z,63.87
2018-03-31T08:48:57.563Z,65.45
2018-03-31T08:51:25.072Z,65.12
2018-03-31T08:53:52.564Z,65.81
2018-03-31T08:56:19.872Z,65.76
2018-03-31T08:58:46.794Z,63.86
2018-03-31T09:01:14.043Z,62.26
2018-03-31T09:03:41.624Z,63.67
2018-03-31T09:06:08.987Z,63.84
2018-03-31T09:08:36.578Z,62.62
2018-03-31T09:11:03.780Z,62.85
2018-03-31T09:13:31.563Z,60.94
2018-03-31T09:15:59.143Z,61.79
2018-03-31T09:18:27.360Z,61.26
2018-03-31T09:20:54.823Z,60.82
2018-03-31T09:23:22.165Z,60.42
2018-03-31T09:25:50.890Z,62.25
2018-03-31T09:28:18.384Z,58.01
2018-03-31T09:30:45.887Z,57.78
2018-03-31T09:33:13.325Z,58.11
2018-03-31T09:35:40.728Z,59.02
2018-03-31T09:38:08.430Z,57.25
2018-03-31T09:40:37.684Z,59.40
2018-03-31T09:43:05.134Z,58.39
2018-03-31T09:45:32.537Z,56.27
2018-03-31T09:47:59.414Z,56.79
2018-03-31T09:50:26.278Z,57.49
2018-03-31T09:52:53.222Z,54.49
2018-03-31T09:55:20.770Z,55.26
2018-03-31T09:57:47.640Z,54.74
2018-03-31T10:00:14.527Z,53.88
2018-03-31T10:02:41.389Z,54.58
2018-03-31T10:05:08.266Z,54.20
2018-03-31T10:07:35.126Z,53.96
2018-03-31T10:10:02.018Z,52.83
2018-03-31T10:12:28.928Z,54.58
2018-03-31T10:14:55.758Z,53.10
2018-03-31T10:17:22.629Z,54.11
2018-03-31T10:19:49.497Z,52.86
2018-03-31T10:22:16.355Z,47.51
2018-03-31T10:24:43.233Z,45.39
2018-03-31T10:27:10.114Z,47.90
2018-03-31T10:29:36.987Z,47.00
2018-03-31T10:32:03.855Z,47.94
2018-03-31T10:34:31.288Z,47.58
2018-03-31T10:36:59.505Z,50.87
2018-03-31T10:39:27.064Z,47.20
2018-03-31T10:41:54.604Z,49.95
2018-03-31T10:44:22.674Z,45.08
2018-03-31T10:46:50.230Z,44.33
2018-03-31T10:49:17.772Z,44.95
2018-03-31T10:51:45.233Z,44.92
2018-03-31T10:54:12.701Z,45.81
2018-03-31T10:56:39.628Z,44.94
2018-03-31T10:59:06.513Z,45.88
2018-03-31T11:01:33.416Z,45.05
2018-03-31T11:04:00.279Z,42.76
2018-03-31T11:06:27.171Z,44.64
2018-03-31T11:08:54.982Z,43.56
2018-03-31T11:11:21.900Z,42.61
2018-03-31T11:13:48.769Z,44.31
2018-03-31T11:16:15.638Z,44.40
2018-03-31T11:18:42.540Z,43.23
2018-03-31T11:21:09.407Z,43.16
2018-03-31T11:23:36.278Z,45.37
2018-03-31T11:26:03.184Z,44.20
2018-03-31T11:28:30.038Z,41.62
2018-03-31T11:30:56.949Z,43.75
2018-03-31T11:33:23.818Z,43.36
2018-03-31T11:35:50.700Z,42.46
2018-03-31T11:38:17.588Z,42.93
2018-03-31T11:40:44.459Z,43.39
2018-03-31T11:43:11.324Z,44.00
2018-03-31T11:45:38.214Z,41.22
2018-03-31T11:48:05.084Z,42.90
2018-03-31T11:50:32.027Z,43.28
2018-03-31T11:52:58.885Z,43.14
2018-03-31T11:55:26.547Z,43.03
2018-03-31T11:57:53.459Z,41.10
2018-03-31T12:00:20.455Z,44.12
2018-03-31T12:02:47.318Z,42.35
2018-03-31T12:05:14.208Z,43.85
2018-03-31T12:07:41.073Z,45.66
2018-03-31T12:10:07.998Z,46.33
2018-03-31T12:12:34.867Z,43.97
2018-03-31T12:15:01.741Z,42.92
2018-03-31T12:17:28.634Z,43.39
2018-03-31T12:19:55.486Z,42.63
2018-03-31T12:22:22.396Z,41.42
2018-03-31T12:24:49.267Z,39.74
2018-03-31T12:27:16.134Z,41.61
2018-03-31T12:29:43.007Z,41.35
2018-03-31T12:32:09.896Z,39.70
2018-03-31T12:34:36.750Z,39.63
2018-03-31T12:37:03.626Z,39.55
2018-03-31T12:39:30.498Z,39.39
2018-03-31T12:41:57.374Z,38.95
2018-03-31T12:44:24.446Z,37.00
2018-03-31T12:46:51.388Z,36.77
2018-03-31T12:49:18.331Z,38.92
2018-03-31T12:51:45.299Z,36.92
2018-03-31T12:54:12.129Z,36.37
2018-03-31T12:56:38.990Z,36.09
2018-03-31T12:59:05.877Z,36.27
2018-03-31T13:01:32.928Z,37.41
2018-03-31T13:03:59.794Z,36.05
2018-03-31T13:06:26.670Z,36.11
2018-03-31T13:08:53.548Z,35.27
2018-03-31T13:11:20.418Z,35.09
2018-03-31T13:13:47.290Z,36.17
2018-03-31T13:16:14.162Z,36.08
2018-03-31T13:18:41.045Z,36.55
2018-03-31T13:21:07.916Z,34.90
2018-03-31T13:23:34.796Z,34.68
2018-03-31T13:26:01.666Z,36.87
2018-03-31T13:28:28.537Z,37.90
2018-03-31T13:30:55.587Z,34.50
2018-03-31T13:33:22.459Z,34.49
2018-03-31T13:35:49.328Z,34.89
2018-03-31T13:38:16.209Z,35.09
2018-03-31T13:40:43.071Z,34.46
2018-03-31T13:43:09.952Z,33.38
2018-03-31T13:45:36.812Z,31.72
2018-03-31T13:48:03.694Z,32.86
2018-03-31T13:50:30.555Z,32.81
2018-03-31T13:52:57.442Z,32.29
2018-03-31T13:55:24.315Z,32.54
2018-03-31T13:57:51.197Z,33.93
2018-03-31T14:00:18.069Z,32.00
2018-03-31T14:02:44.984Z,33.95
2018-03-31T14:05:11.864Z,34.22
2018-03-31T14:07:38.736Z,34.31
2018-03-31T14:10:05.614Z,35.57
2018-03-31T14:12:32.479Z,32.21
2018-03-31T14:14:59.372Z,33.16
2018-03-31T14:17:26.834Z,35.16
2018-03-31T14:19:53.756Z,33.68
2018-03-31T14:24:53.947Z,35.03
2018-03-31T14:27:20.910Z,35.99
2018-03-31T14:29:47.800Z,34.55
2018-03-31T14:32:14.665Z,36.95
2018-03-31T14:34:41.543Z,34.66
2018-03-31T14:37:08.411Z,35.72
2018-03-31T14:39:35.290Z,35.79
2018-03-31T14:42:02.155Z,37.88
2018-03-31T14:44:29.039Z,35.89
2018-03-31T14:46:55.918Z,36.47
2018-03-31T14:49:22.789Z,37.65
2018-03-31T14:51:49.676Z,36.97
2018-03-31T14:54:16.562Z,37.00
2018-03-31T14:56:43.425Z,36.05
2018-03-31T14:59:10.306Z,36.14
2018-03-31T15:01:37.180Z,35.73
2018-03-31T15:04:04.058Z,35.73
2018-03-31T15:06:30.925Z,35.22
2018-03-31T15:08:58.229Z,34.47
2018-03-31T15:11:25.109Z,33.43
2018-03-31T15:13:51.983Z,35.76
2018-03-31T15:16:18.882Z,33.94
2018-03-31T15:18:45.798Z,33.74
2018-03-31T15:21:12.755Z,33.52
2018-03-31T15:23:39.644Z,33.46
2018-03-31T15:26:06.519Z,34.87
2018-03-31T15:28:33.504Z,34.85
2018-03-31T15:31:00.355Z,33.54
2018-03-31T15:33:27.230Z,32.75
2018-03-31T15:35:54.240Z,32.48
2018-03-31T15:38:21.109Z,32.41
2018-03-31T15:40:48.004Z,33.22
2018-03-31T15:43:14.871Z,34.08
2018-03-31T15:45:41.742Z,33.86
2018-03-31T15:48:08.638Z,34.41
2018-03-31T15:50:35.499Z,34.22
2018-03-31T15:53:02.386Z,34.97
2018-03-31T15:55:29.594Z,34.66
2018-03-31T15:57:56.527Z,35.05
2018-03-31T16:00:23.402Z,35.27
2018-03-31T16:02:50.265Z,35.91
2018-03-31T16:05:17.263Z,35.88
2018-03-31T16:07:44.205Z,36.88
2018-03-31T16:10:11.085Z,35.51
2018-03-31T16:12:37.948Z,35.65
2018-03-31T16:15:04.942Z,36.04
2018-03-31T16:17:31.872Z,36.18
2018-03-31T16:19:58.756Z,36.51
2018-03-31T16:22:25.634Z,36.10
2018-03-31T16:24:52.617Z,36.42
2018-03-31T16:27:19.525Z,37.04
2018-03-31T16:29:46.462Z,37.25
2018-03-31T16:32:13.458Z,37.41
2018-03-31T16:34:40.449Z,38.25
2018-03-31T16:37:07.268Z,39.63
2018-03-31T16:39:34.143Z,38.91
2018-03-31T16:42:01.006Z,37.97
2018-03-31T16:44:27.914Z,36.63
2018-03-31T16:46:54.808Z,37.79
2018-03-31T16:49:21.706Z,37.52
2018-03-31T16:51:48.595Z,37.88
2018-03-31T16:54:15.470Z,38.70
2018-03-31T16:56:42.344Z,38.71
2018-03-31T16:59:09.246Z,39.36
2018-03-31T17:01:36.126Z,38.65
2018-03-31T17:04:03.068Z,38.27
2018-03-31T17:06:29.887Z,38.62
2018-03-31T17:08:56.753Z,39.91
2018-03-31T17:11:23.618Z,39.65
2018-03-31T17:13:50.495Z,40.71
2018-03-31T17:16:17.370Z,39.83
2018-03-31T17:18:44.252Z,40.05
2018-03-31T17:21:11.249Z,43.63
2018-03-31T17:23:38.198Z,40.77
2018-03-31T17:26:05.068Z,42.03
2018-03-31T17:28:32.397Z,42.54
2018-03-31T17:30:59.394Z,43.61
2018-03-31T17:33:26.390Z,42.53
2018-03-31T17:35:53.308Z,42.67
2018-03-31T17:38:20.189Z,44.71
2018-03-31T17:40:47.051Z,45.85
2018-03-31T17:43:14.929Z,46.51
2018-03-31T17:45:41.786Z,44.62
2018-03-31T17:48:08.676Z,48.65
2018-03-31T17:50:35.538Z,50.05
2018-03-31T17:53:03.110Z,47.74
2018-03-31T17:55:29.985Z,46.95
2018-03-31T17:57:56.889Z,47.31
2018-03-31T18:00:23.759Z,48.70
2018-03-31T18:02:50.637Z,51.32
2018-03-31T18:05:17.513Z,46.16
2018-03-31T18:07:44.386Z,48.58
2018-03-31T18:10:11.255Z,47.04
2018-03-31T18:12:38.129Z,47.03
2018-03-31T18:15:04.981Z,47.39
2018-03-31T18:17:31.843Z,48.12
2018-03-31T18:19:58.714Z,48.74
2018-03-31T18:22:25.602Z,48.67
2018-03-31T18:24:52.468Z,49.37
2018-03-31T18:27:19.351Z,49.83
2018-03-31T18:29:46.193Z,51.15
2018-03-31T18:32:13.070Z,50.68
2018-03-31T18:34:40.891Z,51.26
2018-03-31T18:37:07.786Z,52.00
2018-03-31T18:39:34.659Z,52.73
2018-03-31T18:42:01.514Z,51.96
2018-03-31T18:44:28.384Z,52.17
2018-03-31T18:46:55.245Z,52.11
2018-03-31T18:49:22.131Z,52.24
2018-03-31T18:51:48.998Z,52.90
2018-03-31T18:54:15.854Z,53.10
2018-03-31T18:56:42.763Z,54.72
2018-03-31T18:59:09.633Z,57.29
2018-03-31T19:01:36.496Z,58.23
2018-03-31T19:04:03.386Z,57.59
2018-03-31T19:06:30.244Z,58.23
2018-03-31T19:08:57.110Z,59.36
2018-03-31T19:11:23.973Z,60.99
2018-03-31T19:13:50.861Z,59.60
2018-03-31T19:16:17.714Z,59.22
2018-03-31T19:18:44.600Z,59.41
2018-03-31T19:21:11.489Z,59.20
2018-03-31T19:23:38.350Z,59.71
2018-03-31T19:26:06.115Z,61.07
2018-03-31T19:28:32.986Z,60.61
2018-03-31T19:30:59.867Z,62.57
2018-03-31T19:33:26.738Z,61.67
2018-03-31T19:35:59.251Z,63.38
2018-03-31T19:38:26.122Z,63.17
2018-03-31T19:40:53.012Z,63.84
2018-03-31T19:43:19.871Z,62.84
2018-03-31T19:45:46.744Z,63.21
2018-03-31T19:48:13.615Z,62.57
2018-03-31T19:50:40.499Z,64.18
2018-03-31T19:53:07.403Z,63.23
2018-03-31T19:55:34.288Z,63.01
2018-03-31T19:58:01.158Z,63.23
2018-03-31T20:00:28.057Z,63.70
2018-03-31T20:02:54.911Z,64.03
2018-03-31T20:05:21.778Z,63.50
2018-03-31T20:07:48.670Z,62.82
2018-03-31T20:10:15.570Z,62.40
2018-03-31T20:12:42.426Z,63.21
2018-03-31T20:15:09.313Z,64.12
2018-03-31T20:17:36.997Z,63.39
2018-03-31T20:20:03.884Z,61.96
2018-03-31T20:22:30.797Z,63.45
2018-03-31T20:24:57.685Z,63.00
2018-03-31T20:27:24.635Z,63.60
2018-03-31T20:29:51.505Z,61.65
2018-03-31T20:32:18.371Z,62.53
2018-03-31T20:34:45.236Z,62.65
2018-03-31T20:37:12.123Z,63.80
2018-03-31T20:39:38.990Z,63.62
2018-03-31T20:42:05.880Z,63.34
2018-03-31T20:44:32.768Z,62.31
2018-03-31T20:46:59.956Z,61.87
2018-03-31T20:49:26.831Z,61.95
2018-03-31T20:51:53.711Z,61.00
2018-03-31T20:54:20.838Z,60.74
2018-03-31T20:56:47.714Z,61.55
2018-03-31T20:59:14.586Z,61.55
2018-03-31T21:01:41.470Z,61.31
2018-03-31T21:04:08.338Z,60.56
2018-03-31T21:06:35.822Z,60.78
2018-03-31T21:09:02.694Z,60.49
2018-03-31T21:11:29.565Z,60.53
2018-03-31T21:13:56.438Z,61.44
2018-03-31T21:16:23.316Z,61.31
2018-03-31T21:18:50.186Z,61.98
2018-03-31T21:21:17.070Z,62.52
2018-03-31T21:23:43.949Z,63.14
2018-03-31T21:26:10.830Z,62.90
2018-03-31T21:28:37.695Z,62.97
2018-03-31T21:31:04.570Z,63.32
2018-03-31T21:33:31.446Z,63.67
2018-03-31T21:35:58.378Z,64.30
2018-03-31T21:38:25.247Z,63.54
2018-03-31T21:40:52.116Z,63.42
2018-03-31T21:43:18.991Z,64.04
2018-03-31T21:45:45.866Z,64.55
2018-03-31T21:48:12.766Z,64.49
2018-03-31T21:50:39.639Z,64.81
2018-03-31T21:53:06.526Z,64.96
2018-03-31T21:55:33.397Z,65.01
2018-03-31T21:58:00.295Z,64.93
2018-03-31T22:02:39.370Z,65.39
2018-03-31T22:05:06.323Z,65.50
2018-03-31T22:07:33.217Z,64.81
2018-03-31T22:10:00.076Z,64.69
2018-03-31T22:12:26.953Z,65.85
2018-03-31T22:14:59.442Z,64.17
2018-03-31T22:17:26.345Z,63.06
2018-03-31T22:19:53.207Z,62.84
2018-03-31T22:22:20.085Z,63.09
2018-03-31T22:24:46.965Z,61.47
2018-03-31T22:27:13.850Z,61.63
2018-03-31T22:29:40.718Z,61.42
2018-03-31T22:32:07.606Z,61.06
2018-03-31T22:34:34.482Z,61.26
2018-03-31T22:37:01.338Z,61.84
2018-03-31T22:39:28.218Z,60.69
2018-03-31T22:41:55.081Z,59.98
2018-03-31T22:44:21.964Z,60.78
2018-03-31T22:46:48.827Z,60.93
2018-03-31T22:49:15.702Z,60.59
2018-03-31T22:51:42.583Z,61.10
2018-03-31T22:54:09.459Z,60.79
2018-03-31T22:56:36.389Z,61.58
2018-03-31T22:59:03.261Z,59.98
2018-03-31T23:01:30.166Z,60.21
2018-03-31T23:03:57.041Z,59.96
2018-03-31T23:06:23.910Z,61.26
2018-03-31T23:08:50.792Z,59.82
2018-03-31T23:11:17.657Z,60.37
2018-03-31T23:13:45.020Z,60.39
2018-03-31T23:16:11.873Z,61.14
2018-03-31T23:18:38.746Z,60.66
2018-03-31T23:21:05.612Z,60.73
2018-03-31T23:23:32.489Z,60.55
2018-03-31T23:25:59.360Z,61.06
2018-03-31T23:28:26.232Z,61.76
2018-03-31T23:30:53.108Z,61.66
2018-03-31T23:33:19.971Z,61.77
2018-03-31T23:35:46.838Z,64.57
2018-03-31T23:38:13.713Z,61.92
2018-03-31T23:40:40.591Z,63.23
2018-03-31T23:43:07.451Z,62.03
2018-03-31T23:45:34.321Z,62.84
2018-03-31T23:48:01.199Z,62.75
2018-03-31T23:50:28.074Z,62.96
2018-03-31T23:52:54.940Z,63.23
2018-03-31T23:55:21.824Z,61.82
2018-03-31T23:57:48.693Z,63.17
